createdAt,value
2018-11-13T00:00:12.985Z,26.4
2018-11-13T00:01:03.348Z,26.4
2018-11-13T00:01:53.475Z,26.3
2018-11-13T00:02:44.047Z,26.2
2018-11-13T00:03:34.730Z,26.1
2018-11-13T00:04:24.085Z,26
2018-11-13T00:05:14.390Z,26
2018-11-13T00:06:04.208Z,26
2018-11-13T00:06:54.380Z,26
2018-11-13T00:25:08.664Z,34.3
2018-11-13T00:25:58.638Z,34.5
2018-11-13T00:26:49.144Z,33.8
2018-11-13T00:27:39.042Z,33.2
2018-11-13T00:28:28.333Z,32.9
2018-11-13T00:29:19.351Z,32.4
2018-11-13T00:30:10.018Z,31.9
2018-11-13T00:31:00.563Z,31.1
2018-11-13T00:31:49.071Z,30.3
2018-11-13T00:32:39.073Z,29.5
2018-11-13T00:33:27.318Z,28.9
2018-11-13T00:34:18.828Z,28.3
2018-11-13T00:35:09.617Z,27.8
2018-11-13T00:35:58.616Z,27.4
2018-11-13T00:36:49.210Z,27.6
2018-11-13T00:37:39.499Z,27.6
2018-11-13T00:38:29.575Z,27.2
2018-11-13T00:39:22.173Z,26.8
2018-11-13T00:40:09.472Z,26.6
2018-11-13T00:40:59.438Z,26.4
2018-11-13T00:41:50.013Z,26.3
2018-11-13T00:42:39.755Z,26.2
2018-11-13T00:43:28.918Z,26.1
2018-11-13T00:44:19.527Z,26.1
2018-11-13T00:45:09.290Z,26
2018-11-13T00:46:04.151Z,25.9
2018-11-13T00:46:49.614Z,25.9
2018-11-13T00:47:39.669Z,26.7
2018-11-13T00:48:32.503Z,27.7
2018-11-13T00:49:20.612Z,28.5
2018-11-13T00:50:11.199Z,29.1
2018-11-13T00:51:02.076Z,29.6
2018-11-13T00:51:50.759Z,30.2
2018-11-13T00:52:39.874Z,30.6
2018-11-13T00:53:29.218Z,31.1
2018-11-13T00:54:20.804Z,31.4
2018-11-13T00:55:11.838Z,31.8
2018-11-13T00:56:00.691Z,32.1
2018-11-13T00:56:52.374Z,32.4
2018-11-13T00:57:42.190Z,32.7
2018-11-13T00:58:31.746Z,32.9
2018-11-13T00:59:21.779Z,33.1
2018-11-13T01:00:11.814Z,33.3
2018-11-13T01:01:02.418Z,33.6
2018-11-13T01:01:50.888Z,33.8
2018-11-13T01:02:41.708Z,33.9
2018-11-13T01:03:31.111Z,34.1
2018-11-13T01:04:21.409Z,34.2
2018-11-13T01:05:13.693Z,34.4
2018-11-13T01:06:00.746Z,34.5
2018-11-13T01:06:51.523Z,33.9
2018-11-13T01:07:43.476Z,33.1
2018-11-13T01:08:32.001Z,32.8
2018-11-13T01:09:21.013Z,32.4
2018-11-13T01:10:12.176Z,31.9
2018-11-13T01:11:02.238Z,31.1
2018-11-13T01:11:52.522Z,30.3
2018-11-13T01:12:41.949Z,29.5
2018-11-13T01:13:33.730Z,28.8
2018-11-13T01:14:23.232Z,28.2
2018-11-13T01:15:14.955Z,27.7
2018-11-13T01:16:01.987Z,27.3
2018-11-13T01:16:52.127Z,27.3
2018-11-13T01:17:42.658Z,27.4
2018-11-13T01:18:32.662Z,27.3
2018-11-13T01:19:22.180Z,26.8
2018-11-13T01:20:13.058Z,26.5
2018-11-13T01:21:04.448Z,26.3
2018-11-13T01:21:53.490Z,26.1
2018-11-13T01:22:43.918Z,26
2018-11-13T01:23:33.084Z,25.9
2018-11-13T01:24:24.430Z,25.9
2018-11-13T01:25:12.821Z,25.8
2018-11-13T01:26:03.014Z,25.8
2018-11-13T01:26:53.189Z,25.7
2018-11-13T01:27:43.862Z,25.9
2018-11-13T01:28:33.625Z,27
2018-11-13T01:29:23.221Z,27.9
2018-11-13T01:30:12.261Z,28.6
2018-11-13T01:31:02.943Z,29.1
2018-11-13T01:31:53.678Z,29.7
2018-11-13T01:32:42.988Z,30.2
2018-11-13T01:33:33.636Z,30.6
2018-11-13T01:34:23.813Z,31.1
2018-11-13T01:35:13.946Z,31.4
2018-11-13T01:36:04.608Z,31.7
2018-11-13T01:36:53.575Z,31.9
2018-11-13T01:37:43.918Z,32.2
2018-11-13T01:38:33.891Z,32.4
2018-11-13T01:39:24.203Z,32.6
2018-11-13T01:40:12.840Z,32.8
2018-11-13T01:41:03.293Z,32.9
2018-11-13T01:41:56.270Z,33.1
2018-11-13T01:42:43.683Z,33.3
2018-11-13T01:43:32.684Z,33.4
2018-11-13T01:44:23.611Z,33.6
2018-11-13T01:45:13.883Z,33.8
2018-11-13T01:46:04.767Z,33.9
2018-11-13T01:46:53.502Z,34
2018-11-13T01:47:44.265Z,34.1
2018-11-13T01:48:34.391Z,34.2
2018-11-13T01:49:25.858Z,34.3
2018-11-13T01:50:13.573Z,34.4
2018-11-13T01:51:03.520Z,34.3
2018-11-13T01:51:55.304Z,33.2
2018-11-13T01:52:44.313Z,32.9
2018-11-13T01:53:34.955Z,32.5
2018-11-13T01:54:25.777Z,31.9
2018-11-13T01:55:14.162Z,31.3
2018-11-13T01:56:04.352Z,30.5
2018-11-13T01:56:54.376Z,29.9
2018-11-13T01:57:44.875Z,29.5
2018-11-13T01:58:34.920Z,29.3
2018-11-13T01:59:25.415Z,29
2018-11-13T02:00:15.696Z,28.8
2018-11-13T02:01:05.674Z,28.8
2018-11-13T02:01:55.547Z,28.6
2018-11-13T02:02:46.260Z,28.3
2018-11-13T02:03:35.193Z,28.1
2018-11-13T02:04:24.649Z,27.9
2018-11-13T02:06:04.938Z,27.7
2018-11-13T02:06:55.601Z,27.6
2018-11-13T02:07:46.708Z,27.6
2018-11-13T02:08:35.773Z,27.5
2018-11-13T02:09:26.320Z,27.4
2018-11-13T02:10:16.717Z,27.4
2018-11-13T02:11:05.819Z,27.1
2018-11-13T02:11:56.791Z,27.4
2018-11-13T02:12:46.437Z,28.2
2018-11-13T02:13:36.321Z,28.8
2018-11-13T02:14:26.194Z,29.2
2018-11-13T02:15:16.441Z,29.6
2018-11-13T02:16:07.918Z,30
2018-11-13T02:16:56.889Z,30.4
2018-11-13T02:17:46.922Z,30.7
2018-11-13T02:18:35.898Z,31
2018-11-13T02:19:26.859Z,31.3
2018-11-13T02:20:15.333Z,31.5
2018-11-13T02:21:05.686Z,31.8
2018-11-13T02:21:55.650Z,31.9
2018-11-13T02:22:46.858Z,31.4
2018-11-13T02:23:36.605Z,30.4
2018-11-13T02:24:25.425Z,28.9
2018-11-13T02:25:16.428Z,28
2018-11-13T02:26:06.693Z,27
2018-11-13T02:26:56.792Z,25.9
2018-11-13T02:27:47.928Z,24.6
2018-11-13T02:28:37.104Z,23.8
2018-11-13T02:29:27.540Z,23.9
2018-11-13T02:30:17.312Z,24.7
2018-11-13T02:31:07.748Z,26.3
2018-11-13T02:31:58.245Z,27.4
2018-11-13T02:32:48.345Z,28.4
2018-11-13T02:33:37.075Z,29.1
2018-11-13T02:34:27.255Z,29.6
2018-11-13T02:35:18.193Z,30.1
2018-11-13T02:36:07.157Z,30.6
2018-11-13T02:36:58.042Z,31
2018-11-13T02:37:47.835Z,31.4
2018-11-13T02:38:38.116Z,31.8
2018-11-13T02:39:28.652Z,32.1
2018-11-13T02:40:18.367Z,32.3
2018-11-13T02:41:07.616Z,32.6
2018-11-13T02:41:58.971Z,32.8
2018-11-13T02:42:48.960Z,33.1
2018-11-13T02:43:38.016Z,33.3
2018-11-13T02:44:28.707Z,33.4
2018-11-13T02:45:18.109Z,33.6
2018-11-13T02:46:08.419Z,33.8
2018-11-13T02:46:57.959Z,33.9
2018-11-13T02:47:48.572Z,34
2018-11-13T02:48:36.901Z,34.1
2018-11-13T02:49:29.089Z,34.3
2018-11-13T02:50:18.316Z,34.4
2018-11-13T02:51:09.283Z,34.4
2018-11-13T02:51:59.267Z,34.6
2018-11-13T02:52:49.663Z,33.5
2018-11-13T02:53:38.783Z,32.9
2018-11-13T02:54:29.600Z,32.6
2018-11-13T02:55:19.344Z,32.1
2018-11-13T02:56:07.810Z,31.7
2018-11-13T02:56:59.266Z,31.4
2018-11-13T02:57:49.850Z,31.1
2018-11-13T02:58:40.410Z,30.9
2018-11-13T02:59:30.190Z,30.8
2018-11-13T03:00:19.948Z,30.7
2018-11-13T03:01:10.040Z,30.6
2018-11-13T03:01:59.696Z,30.3
2018-11-13T03:02:49.860Z,29.8
2018-11-13T03:03:40.092Z,29.4
2018-11-13T03:04:29.215Z,29.2
2018-11-13T03:05:20.647Z,29.1
2018-11-13T03:06:10.613Z,28.9
2018-11-13T03:06:59.865Z,28.8
2018-11-13T03:07:51.080Z,28.8
2018-11-13T03:08:41.133Z,28.7
2018-11-13T03:09:29.850Z,28.6
2018-11-13T03:10:20.247Z,28.6
2018-11-13T03:11:11.295Z,28.6
2018-11-13T03:11:59.775Z,28.5
2018-11-13T03:12:51.243Z,27.9
2018-11-13T03:13:41.840Z,28.5
2018-11-13T03:14:30.264Z,29.2
2018-11-13T03:15:20.851Z,29.6
2018-11-13T03:16:11.064Z,30
2018-11-13T03:17:01.392Z,30.4
2018-11-13T03:17:51.337Z,30.8
2018-11-13T03:18:40.869Z,31.1
2018-11-13T03:19:30.331Z,31.4
2018-11-13T03:20:20.899Z,31.8
2018-11-13T03:21:10.668Z,32.1
2018-11-13T03:22:00.676Z,32.3
2018-11-13T03:22:51.232Z,32.5
2018-11-13T03:23:41.374Z,32.8
2018-11-13T03:24:31.192Z,33
2018-11-13T03:25:20.971Z,33.2
2018-11-13T03:26:11.726Z,33.3
2018-11-13T03:27:01.064Z,33.5
2018-11-13T03:27:51.453Z,33.6
2018-11-13T03:28:41.691Z,33.8
2018-11-13T03:29:31.276Z,33.9
2018-11-13T03:30:22.798Z,34
2018-11-13T03:31:13.757Z,34.2
2018-11-13T03:32:02.006Z,34.3
2018-11-13T03:32:52.441Z,34.4
2018-11-13T03:33:42.455Z,34.5
2018-11-13T03:34:31.816Z,34.6
2018-11-13T03:35:21.741Z,33.9
2018-11-13T03:36:12.525Z,33.1
2018-11-13T03:37:02.163Z,32.8
2018-11-13T03:37:52.353Z,32.3
2018-11-13T03:38:42.977Z,31.9
2018-11-13T03:39:33.393Z,31.6
2018-11-13T03:40:22.561Z,31.3
2018-11-13T03:41:12.046Z,31.1
2018-11-13T03:42:02.453Z,30.9
2018-11-13T03:42:52.768Z,30.9
2018-11-13T03:43:43.367Z,30.8
2018-11-13T03:44:32.906Z,30.5
2018-11-13T03:45:21.799Z,30
2018-11-13T03:46:12.413Z,29.6
2018-11-13T03:47:02.910Z,29.3
2018-11-13T03:47:52.887Z,29.1
2018-11-13T03:48:42.931Z,29
2018-11-13T03:49:32.605Z,28.9
2018-11-13T03:50:23.165Z,28.8
2018-11-13T03:51:13.590Z,28.8
2018-11-13T03:52:03.457Z,28.7
2018-11-13T03:52:52.532Z,28.7
2018-11-13T03:53:43.380Z,28.6
2018-11-13T03:54:33.117Z,28.6
2018-11-13T03:55:23.482Z,27.9
2018-11-13T03:56:12.227Z,28.5
2018-11-13T03:57:02.952Z,29.1
2018-11-13T03:57:53.730Z,29.6
2018-11-13T03:58:43.992Z,30
2018-11-13T03:59:32.594Z,30.4
2018-11-13T04:00:24.212Z,30.8
2018-11-13T04:01:14.634Z,31.1
2018-11-13T04:02:03.829Z,31.4
2018-11-13T04:02:54.981Z,31.6
2018-11-13T04:03:45.354Z,31.9
2018-11-13T04:04:34.119Z,32.1
2018-11-13T04:05:24.891Z,32.4
2018-11-13T04:06:14.084Z,32.6
2018-11-13T04:07:04.299Z,32.7
2018-11-13T04:07:54.825Z,32.9
2018-11-13T04:08:45.021Z,33.1
2018-11-13T04:09:34.795Z,33.3
2018-11-13T04:10:23.394Z,33.3
2018-11-13T04:11:15.336Z,33.4
2018-11-13T04:12:04.881Z,33.6
2018-11-13T04:12:55.583Z,33.7
2018-11-13T04:13:44.894Z,33.8
2018-11-13T04:14:34.684Z,33.9
2018-11-13T04:15:25.145Z,33.9
2018-11-13T04:16:14.963Z,34.1
2018-11-13T04:17:04.961Z,34.1
2018-11-13T04:17:56.215Z,34.2
2018-11-13T04:18:45.518Z,34.3
2018-11-13T04:19:36.108Z,34.3
2018-11-13T04:20:26.520Z,34.3
2018-11-13T04:21:15.248Z,34.4
2018-11-13T04:22:04.950Z,34.4
2018-11-13T04:22:55.226Z,33.3
2018-11-13T04:23:45.918Z,32.8
2018-11-13T04:24:35.685Z,32.4
2018-11-13T04:25:26.156Z,32
2018-11-13T04:26:15.796Z,31.6
2018-11-13T04:27:06.668Z,31.4
2018-11-13T04:27:55.215Z,31.2
2018-11-13T04:28:45.649Z,31
2018-11-13T04:29:35.335Z,30.8
2018-11-13T04:30:27.042Z,30.8
2018-11-13T04:31:16.139Z,30.8
2018-11-13T04:32:06.661Z,30.6
2018-11-13T04:32:56.097Z,30.1
2018-11-13T04:33:46.518Z,29.6
2018-11-13T04:34:36.937Z,29.3
2018-11-13T04:35:26.502Z,29.1
2018-11-13T04:36:16.175Z,28.9
2018-11-13T04:54:21.870Z,32.1
2018-11-13T04:55:11.834Z,32.3
2018-11-13T04:56:01.984Z,32.4
2018-11-13T04:56:51.631Z,32.6
2018-11-13T04:57:42.181Z,32.7
2018-11-13T04:58:32.308Z,32.8
2018-11-13T04:59:22.375Z,32.9
2018-11-13T05:00:11.989Z,33
2018-11-13T05:01:01.701Z,33.1
2018-11-13T05:01:52.274Z,33.1
2018-11-13T05:02:42.439Z,33.3
2018-11-13T05:03:32.099Z,33.3
2018-11-13T05:04:22.114Z,33.4
2018-11-13T05:05:13.478Z,33.4
2018-11-13T05:06:02.029Z,33.4
2018-11-13T05:06:52.563Z,33.4
2018-11-13T05:07:41.820Z,33.5
2018-11-13T05:08:32.726Z,33.6
2018-11-13T05:09:24.066Z,33.5
2018-11-13T05:10:15.257Z,33.5
2018-11-13T05:11:01.706Z,33.5
2018-11-13T05:11:51.062Z,33.4
2018-11-13T05:12:43.028Z,33.4
2018-11-13T05:13:33.292Z,33.4
2018-11-13T05:14:24.002Z,33.4
2018-11-13T05:15:13.115Z,32.9
2018-11-13T05:16:03.011Z,31.8
2018-11-13T05:16:52.619Z,30.1
2018-11-13T05:17:43.021Z,29.1
2018-11-13T05:18:33.779Z,28.1
2018-11-13T05:19:22.794Z,27
2018-11-13T05:20:13.342Z,25.9
2018-11-13T05:21:03.270Z,24.6
2018-11-13T05:21:53.535Z,23.6
2018-11-13T05:22:43.157Z,23.8
2018-11-13T05:23:34.627Z,24.1
2018-11-13T05:24:22.619Z,25.8
2018-11-13T05:25:13.206Z,27.1
2018-11-13T05:26:03.956Z,28.1
2018-11-13T05:26:53.349Z,28.9
2018-11-13T05:27:44.239Z,29.6
2018-11-13T05:28:33.752Z,30.2
2018-11-13T05:29:24.177Z,30.7
2018-11-13T05:30:13.980Z,31.1
2018-11-13T05:31:02.786Z,31.6
2018-11-13T05:31:53.468Z,31.9
2018-11-13T05:32:43.967Z,32.2
2018-11-13T05:33:34.549Z,32.5
2018-11-13T05:34:25.044Z,32.8
2018-11-13T05:35:15.403Z,33.1
2018-11-13T05:36:02.946Z,33.3
2018-11-13T05:36:53.383Z,33.5
2018-11-13T05:37:44.358Z,33.7
2018-11-13T05:38:34.661Z,33.8
2018-11-13T05:39:23.301Z,34
2018-11-13T05:40:13.798Z,34.1
2018-11-13T05:41:04.401Z,34.3
2018-11-13T05:41:54.409Z,34.4
2018-11-13T05:42:45.116Z,34.5
2018-11-13T05:43:34.296Z,34.6
2018-11-13T05:44:23.846Z,33.9
2018-11-13T05:45:14.898Z,33.1
2018-11-13T05:46:05.611Z,32.8
2018-11-13T05:46:55.113Z,32.3
2018-11-13T05:47:44.988Z,31.9
2018-11-13T05:48:34.720Z,31.6
2018-11-13T05:49:23.638Z,31.3
2018-11-13T05:50:15.233Z,31.1
2018-11-13T05:51:05.750Z,31
2018-11-13T05:51:54.943Z,30.9
2018-11-13T05:52:44.327Z,30.8
2018-11-13T05:53:33.747Z,30.5
2018-11-13T05:54:25.051Z,29.9
2018-11-13T05:55:15.712Z,29.6
2018-11-13T05:56:06.112Z,29.3
2018-11-13T05:56:55.622Z,29.1
2018-11-13T05:57:46.291Z,29
2018-11-13T05:58:35.273Z,28.9
2018-11-13T05:59:25.935Z,28.8
2018-11-13T06:00:14.355Z,28.7
2018-11-13T06:01:05.480Z,28.6
2018-11-13T06:01:55.425Z,28.6
2018-11-13T06:02:45.291Z,28.6
2018-11-13T06:03:35.819Z,28.4
2018-11-13T06:04:25.952Z,27.9
2018-11-13T06:05:16.665Z,28.5
2018-11-13T06:06:06.656Z,29.1
2018-11-13T06:06:57.167Z,29.6
2018-11-13T06:07:46.181Z,30
2018-11-13T06:08:37.411Z,30.4
2018-11-13T06:09:27.067Z,30.8
2018-11-13T06:10:17.991Z,31.1
2018-11-13T06:11:06.929Z,31.4
2018-11-13T06:11:57.660Z,31.8
2018-11-13T06:12:46.074Z,32
2018-11-13T06:13:36.819Z,32.2
2018-11-13T06:14:27.683Z,32.4
2018-11-13T06:15:17.324Z,32.7
2018-11-13T06:16:07.563Z,32.9
2018-11-13T06:16:57.236Z,33.1
2018-11-13T06:17:46.669Z,33.3
2018-11-13T06:18:36.576Z,33.4
2018-11-13T06:19:27.494Z,33.6
2018-11-13T06:20:17.399Z,33.7
2018-11-13T06:21:07.946Z,33.9
2018-11-13T06:21:57.978Z,34
2018-11-13T06:22:47.849Z,34.1
2018-11-13T06:23:37.991Z,34.3
2018-11-13T06:24:28.668Z,34.3
2018-11-13T06:25:17.422Z,34.4
2018-11-13T06:26:07.821Z,33.4
2018-11-13T06:26:58.537Z,32.9
2018-11-13T06:27:46.812Z,32.5
2018-11-13T06:28:38.603Z,32.1
2018-11-13T06:29:27.761Z,31.6
2018-11-13T06:30:17.525Z,31.4
2018-11-13T06:31:08.143Z,31.1
2018-11-13T06:31:58.458Z,30.9
2018-11-13T06:32:48.468Z,30.8
2018-11-13T06:33:39.165Z,30.7
2018-11-13T06:34:28.905Z,30.6
2018-11-13T06:35:18.590Z,30.2
2018-11-13T06:36:08.797Z,29.8
2018-11-13T06:36:58.824Z,29.4
2018-11-13T06:37:50.436Z,29.2
2018-11-13T06:38:39.269Z,29
2018-11-13T06:39:28.659Z,28.9
2018-11-13T06:40:18.580Z,28.8
2018-11-13T06:41:08.489Z,28.7
2018-11-13T06:41:57.764Z,28.6
2018-11-13T06:42:49.062Z,28.6
2018-11-13T06:43:38.697Z,28.5
2018-11-13T06:44:28.469Z,28.4
2018-11-13T06:45:18.412Z,28.3
2018-11-13T06:46:10.311Z,27.6
2018-11-13T06:46:59.039Z,27.3
2018-11-13T06:47:49.313Z,27.1
2018-11-13T06:48:38.437Z,26.8
2018-11-13T06:49:30.248Z,26.8
2018-11-13T06:50:20.860Z,26.6
2018-11-13T06:51:10.047Z,26.6
2018-11-13T06:51:59.401Z,26.4
2018-11-13T06:52:49.374Z,26.4
2018-11-13T06:53:38.343Z,26.4
2018-11-13T06:54:29.121Z,26.3
2018-11-13T06:55:20.235Z,26.3
2018-11-13T06:56:09.541Z,25.9
2018-11-13T06:56:59.318Z,25.6
2018-11-13T06:57:50.167Z,25.4
2018-11-13T06:58:39.983Z,25.2
2018-11-13T06:59:29.710Z,25.1
2018-11-13T07:00:20.926Z,25
2018-11-13T07:01:10.351Z,24.9
2018-11-13T07:02:00.307Z,24.9
2018-11-13T07:02:51.028Z,24.9
2018-11-13T07:03:40.625Z,24.8
2018-11-13T07:04:30.817Z,24.8
2018-11-13T07:05:21.843Z,24.8
2018-11-13T07:06:10.438Z,24.6
2018-11-13T07:07:00.858Z,24.4
2018-11-13T07:07:49.832Z,24.2
2018-11-13T07:08:40.289Z,24.1
2018-11-13T07:09:30.716Z,24
2018-11-13T07:10:20.231Z,23.9
2018-11-13T07:11:11.817Z,23.9
2018-11-13T07:12:00.716Z,23.8
2018-11-13T07:12:52.423Z,23.8
2018-11-13T07:13:40.940Z,23.8
2018-11-13T07:14:31.808Z,23.8
2018-11-13T07:15:20.401Z,23.8
2018-11-13T07:16:11.768Z,23.7
2018-11-13T07:17:01.627Z,23.6
2018-11-13T07:17:51.771Z,23.4
2018-11-13T07:18:42.089Z,23.3
2018-11-13T07:19:30.290Z,23.3
2018-11-13T07:20:21.669Z,23.2
2018-11-13T07:21:11.448Z,23.1
2018-11-13T07:22:01.363Z,23.1
2018-11-13T07:22:51.475Z,23.1
2018-11-13T07:23:42.313Z,23.1
2018-11-13T07:24:32.017Z,23.1
2018-11-13T07:25:22.874Z,23.1
2018-11-13T07:26:12.303Z,23.1
2018-11-13T07:27:04.012Z,23
2018-11-13T07:27:52.697Z,22.8
2018-11-13T07:28:41.409Z,22.8
2018-11-13T07:29:32.082Z,22.7
2018-11-13T07:30:22.384Z,22.6
2018-11-13T07:31:13.614Z,22.7
2018-11-13T07:32:03.354Z,22.6
2018-11-13T07:32:53.760Z,22.6
2018-11-13T07:33:43.580Z,22.6
2018-11-13T07:34:34.913Z,22.6
2018-11-13T07:35:22.947Z,22.6
2018-11-13T07:36:10.785Z,22.6
2018-11-13T07:37:02.536Z,22.6
2018-11-13T07:37:53.111Z,22.4
2018-11-13T07:38:42.382Z,22.4
2018-11-13T07:39:33.404Z,22.3
2018-11-13T07:40:23.579Z,22.3
2018-11-13T07:41:14.173Z,22.3
2018-11-13T07:42:03.908Z,22.3
2018-11-13T07:42:53.909Z,22.3
2018-11-13T07:43:43.398Z,22.3
2018-11-13T07:44:33.244Z,22.3
2018-11-13T07:45:24.173Z,22.3
2018-11-13T07:46:14.196Z,22.3
2018-11-13T07:47:05.570Z,22.3
2018-11-13T07:47:57.743Z,22.2
2018-11-13T07:48:44.048Z,22.1
2018-11-13T07:49:34.481Z,22.1
2018-11-13T07:50:24.029Z,22
2018-11-13T07:51:16.052Z,22
2018-11-13T07:52:04.023Z,21.9
2018-11-13T07:52:54.429Z,21.9
2018-11-13T07:53:44.693Z,22
2018-11-13T07:54:34.318Z,22
2018-11-13T07:55:24.868Z,21.9
2018-11-13T07:56:15.215Z,21.9
2018-11-13T07:57:05.005Z,22
2018-11-13T07:57:55.043Z,22
2018-11-13T07:58:45.247Z,21.9
2018-11-13T07:59:34.652Z,21.8
2018-11-13T08:00:25.396Z,21.8
2018-11-13T08:01:15.235Z,21.8
2018-11-13T08:02:04.800Z,21.8
2018-11-13T08:02:55.142Z,21.8
2018-11-13T08:03:46.751Z,21.8
2018-11-13T08:04:35.409Z,21.8
2018-11-13T08:05:25.495Z,21.8
2018-11-13T08:06:16.224Z,21.8
2018-11-13T08:07:05.657Z,21.8
2018-11-13T08:07:56.540Z,21.8
2018-11-13T08:08:46.272Z,21.7
2018-11-13T08:09:35.992Z,21.6
2018-11-13T08:10:25.740Z,21.6
2018-11-13T08:11:15.642Z,21.6
2018-11-13T08:12:05.319Z,21.6
2018-11-13T08:12:57.648Z,21.6
2018-11-13T08:13:47.012Z,21.5
2018-11-13T08:14:36.332Z,21.6
2018-11-13T08:15:25.901Z,21.6
2018-11-13T08:16:16.249Z,21.6
2018-11-13T08:17:06.354Z,21.6
2018-11-13T08:17:56.539Z,21.6
2018-11-13T08:18:46.633Z,21.6
2018-11-13T08:19:35.244Z,21.6
2018-11-13T08:20:25.835Z,21.6
2018-11-13T08:21:18.134Z,21.6
2018-11-13T08:22:08.470Z,21.7
2018-11-13T08:22:56.749Z,21.7
2018-11-13T08:23:47.091Z,21.7
2018-11-13T08:24:36.618Z,21.7
2018-11-13T08:25:27.932Z,21.7
2018-11-13T08:26:16.456Z,21.7
2018-11-13T08:27:07.619Z,21.7
2018-11-13T08:27:57.271Z,21.7
2018-11-13T08:28:47.347Z,21.7
2018-11-13T08:29:37.498Z,21.7
2018-11-13T08:30:26.353Z,21.8
2018-11-13T08:31:17.699Z,21.8
2018-11-13T08:32:06.908Z,21.7
2018-11-13T08:32:56.996Z,21.7
2018-11-13T08:33:47.299Z,21.8
2018-11-13T08:34:38.155Z,21.8
2018-11-13T08:35:27.368Z,21.8
2018-11-13T08:36:17.415Z,21.8
2018-11-13T08:37:06.814Z,21.8
2018-11-13T08:37:57.053Z,21.8
2018-11-13T08:38:48.062Z,21.8
2018-11-13T08:39:38.228Z,21.8
2018-11-13T08:40:28.019Z,21.8
2018-11-13T08:41:17.343Z,21.8
2018-11-13T08:42:07.700Z,21.8
2018-11-13T08:42:57.968Z,21.8
2018-11-13T08:43:48.043Z,21.7
2018-11-13T08:44:37.901Z,21.8
2018-11-13T08:45:28.616Z,21.8
2018-11-13T08:46:18.564Z,21.8
2018-11-13T08:47:08.761Z,21.8
2018-11-13T08:47:58.151Z,21.8
2018-11-13T08:48:47.767Z,21.8
2018-11-13T08:49:38.498Z,21.8
2018-11-13T08:50:29.789Z,21.8
2018-11-13T08:51:17.473Z,21.7
2018-11-13T08:52:09.655Z,21.8
2018-11-13T09:08:48.774Z,21.6
2018-11-13T09:09:39.254Z,21.6
2018-11-13T09:10:29.312Z,21.6
2018-11-13T09:11:19.273Z,21.7
2018-11-13T09:12:10.306Z,21.6
2018-11-13T09:12:58.844Z,21.6
2018-11-13T09:13:49.684Z,21.7
2018-11-13T09:14:39.712Z,21.6
2018-11-13T09:15:29.624Z,21.6
2018-11-13T09:16:19.999Z,21.6
2018-11-13T09:17:09.817Z,21.6
2018-11-13T09:18:01.165Z,21.6
2018-11-13T09:18:51.637Z,21.6
2018-11-13T09:19:43.936Z,21.6
2018-11-13T09:20:29.756Z,21.6
2018-11-13T09:21:20.301Z,21.6
2018-11-13T09:22:10.916Z,21.6
2018-11-13T09:23:01.308Z,21.6
2018-11-13T09:23:50.726Z,21.6
2018-11-13T09:24:39.660Z,21.6
2018-11-13T09:25:30.116Z,21.6
2018-11-13T09:26:20.753Z,21.6
2018-11-13T09:27:10.416Z,21.6
2018-11-13T09:28:00.894Z,21.6
2018-11-13T09:28:50.795Z,21.6
2018-11-13T09:29:40.882Z,21.6
2018-11-13T09:30:33.874Z,21.6
2018-11-13T09:31:20.776Z,21.6
2018-11-13T09:32:11.236Z,21.6
2018-11-13T09:33:01.397Z,21.6
2018-11-13T09:33:50.548Z,21.6
2018-11-13T09:34:41.286Z,21.6
2018-11-13T09:35:31.671Z,21.6
2018-11-13T09:36:20.705Z,21.6
2018-11-13T09:37:10.838Z,21.6
2018-11-13T09:38:01.041Z,21.5
2018-11-13T09:38:51.990Z,21.6
2018-11-13T09:39:42.471Z,21.6
2018-11-13T09:40:32.540Z,21.6
2018-11-13T09:41:21.357Z,21.6
2018-11-13T09:42:12.087Z,21.5
2018-11-13T09:43:02.520Z,21.5
2018-11-13T09:43:51.427Z,21.6
2018-11-13T09:44:43.282Z,21.5
2018-11-13T09:45:32.381Z,21.5
2018-11-13T09:46:23.169Z,21.5
2018-11-13T09:47:12.852Z,21.5
2018-11-13T09:48:02.980Z,21.5
2018-11-13T09:48:53.209Z,21.5
2018-11-13T09:49:42.825Z,21.5
2018-11-13T09:50:32.853Z,21.5
2018-11-13T09:51:21.274Z,21.4
2018-11-13T09:52:12.217Z,21.5
2018-11-13T09:53:02.602Z,21.5
2018-11-13T09:53:53.996Z,21.5
2018-11-13T09:54:42.757Z,21.4
2018-11-13T09:55:33.418Z,21.4
2018-11-13T09:56:22.622Z,21.4
2018-11-13T09:57:13.177Z,21.4
2018-11-13T09:58:03.784Z,21.4
2018-11-13T09:58:53.395Z,21.4
2018-11-13T09:59:41.865Z,21.4
2018-11-13T10:00:35.092Z,21.4
2018-11-13T10:01:30.086Z,21.4
2018-11-13T10:02:24.980Z,21.4
2018-11-13T10:03:13.999Z,21.4
2018-11-13T10:03:58.721Z,21.4
2018-11-13T10:04:50.217Z,21.4
2018-11-13T10:05:34.334Z,21.4
2018-11-13T10:06:24.236Z,21.4
2018-11-13T10:07:13.936Z,21.4
2018-11-13T10:08:03.838Z,21.4
2018-11-13T10:08:53.159Z,21.4
2018-11-13T10:09:42.871Z,21.4
2018-11-13T10:10:33.376Z,21.4
2018-11-13T10:11:23.029Z,21.4
2018-11-13T10:12:14.301Z,21.4
2018-11-13T10:13:03.847Z,21.4
2018-11-13T10:13:54.955Z,21.4
2018-11-13T10:14:43.618Z,21.4
2018-11-13T10:15:34.440Z,21.4
2018-11-13T10:16:24.151Z,21.4
2018-11-13T10:17:16.178Z,21.4
2018-11-13T10:18:06.944Z,21.4
2018-11-13T10:18:54.347Z,21.4
2018-11-13T10:19:44.567Z,21.4
2018-11-13T10:20:33.856Z,21.4
2018-11-13T10:21:25.369Z,21.4
2018-11-13T10:22:15.270Z,21.3
2018-11-13T10:23:05.143Z,21.3
2018-11-13T10:23:53.817Z,21.3
2018-11-13T10:24:45.390Z,21.3
2018-11-13T10:25:34.945Z,21.3
2018-11-13T10:26:24.770Z,21.3
2018-11-13T10:27:15.571Z,21.3
2018-11-13T10:28:05.359Z,21.3
2018-11-13T10:28:54.890Z,21.3
2018-11-13T10:29:45.166Z,21.3
2018-11-13T10:30:35.399Z,21.3
2018-11-13T10:31:24.651Z,21.3
2018-11-13T10:32:15.962Z,21.3
2018-11-13T10:33:05.640Z,21.3
2018-11-13T10:33:55.807Z,21.3
2018-11-13T10:34:45.284Z,21.3
2018-11-13T10:35:35.985Z,21.3
2018-11-13T10:36:25.994Z,21.3
2018-11-13T10:37:15.869Z,21.3
2018-11-13T10:38:05.925Z,21.3
2018-11-13T10:38:54.529Z,21.3
2018-11-13T10:39:46.196Z,21.3
2018-11-13T10:40:38.055Z,21.3
2018-11-13T10:41:26.854Z,21.3
2018-11-13T10:42:15.759Z,21.3
2018-11-13T10:43:05.627Z,21.3
2018-11-13T10:43:55.569Z,21.3
2018-11-13T10:44:46.094Z,21.3
2018-11-13T10:45:36.435Z,21.3
2018-11-13T10:46:26.213Z,21.3
2018-11-13T10:47:15.296Z,21.3
2018-11-13T10:48:04.353Z,21.3
2018-11-13T10:48:57.297Z,21.3
2018-11-13T10:49:46.228Z,21.3
2018-11-13T10:50:37.369Z,21.3
2018-11-13T10:51:26.845Z,21.3
2018-11-13T10:52:17.178Z,21.3
2018-11-13T10:53:06.686Z,21.3
2018-11-13T10:53:56.647Z,21.2
2018-11-13T10:54:46.316Z,21.3
2018-11-13T10:55:37.290Z,21.3
2018-11-13T10:56:27.806Z,21.3
2018-11-13T10:57:16.304Z,21.3
2018-11-13T10:58:07.520Z,21.3
2018-11-13T10:58:56.771Z,21.2
2018-11-13T10:59:47.408Z,21.2
2018-11-13T11:00:37.721Z,21.2
2018-11-13T11:01:27.597Z,21.2
2018-11-13T11:02:18.915Z,21.3
2018-11-13T11:03:09.519Z,21.2
2018-11-13T11:03:58.225Z,21.2
2018-11-13T11:04:47.813Z,21.3
2018-11-13T11:05:37.860Z,21.3
2018-11-13T11:06:28.480Z,21.2
2018-11-13T11:07:18.182Z,21.2
2018-11-13T11:08:09.439Z,21.2
2018-11-13T11:08:57.242Z,21.2
2018-11-13T11:10:38.238Z,21.2
2018-11-13T11:11:28.987Z,21.2
2018-11-13T11:12:17.752Z,21.2
2018-11-13T11:13:11.555Z,21.2
2018-11-13T11:14:02.060Z,21.2
2018-11-13T11:14:48.296Z,21.2
2018-11-13T11:16:28.894Z,21.2
2018-11-13T11:18:09.458Z,21.2
2018-11-13T11:19:00.306Z,21.2
2018-11-13T11:42:20.508Z,21.1
2018-11-13T11:44:00.610Z,21.1
2018-11-13T11:44:51.012Z,21.1
2018-11-13T11:45:41.273Z,21.1
2018-11-13T11:46:31.069Z,21.1
2018-11-13T11:47:20.010Z,21.1
2018-11-13T11:48:11.256Z,21.1
2018-11-13T11:48:59.561Z,21.1
2018-11-13T11:49:50.743Z,21.1
2018-11-13T11:51:30.584Z,21.1
2018-11-13T11:52:19.987Z,21.1
2018-11-13T11:53:11.172Z,21.1
2018-11-13T11:54:03.477Z,21.1
2018-11-13T11:54:51.919Z,21.1
2018-11-13T11:55:42.002Z,21.1
2018-11-13T11:56:30.836Z,21.1
2018-11-13T11:57:21.516Z,21.1
2018-11-13T11:58:11.407Z,21.1
2018-11-13T11:59:00.811Z,21.1
2018-11-13T11:59:51.411Z,21.1
2018-11-13T12:00:43.316Z,21.1
2018-11-13T12:01:31.070Z,21.1
2018-11-13T12:02:23.868Z,21.1
2018-11-13T12:03:11.943Z,21.1
2018-11-13T12:04:02.078Z,21
2018-11-13T12:04:52.748Z,21.1
2018-11-13T12:05:41.568Z,21.1
2018-11-13T12:06:32.215Z,21
2018-11-13T12:07:19.335Z,21.1
2018-11-13T12:08:12.081Z,21
2018-11-13T12:09:01.312Z,21
2018-11-13T12:09:52.325Z,21
2018-11-13T12:10:41.028Z,21
2018-11-13T12:11:31.835Z,21
2018-11-13T12:12:22.695Z,21
2018-11-13T12:13:12.591Z,21
2018-11-13T12:14:03.535Z,21
2018-11-13T12:14:53.461Z,21
2018-11-13T12:15:41.663Z,21
2018-11-13T12:16:32.095Z,21
2018-11-13T12:17:22.984Z,21
2018-11-13T12:18:12.800Z,21
2018-11-13T12:19:04.446Z,21
2018-11-13T12:19:53.300Z,21
2018-11-13T12:20:43.598Z,21
2018-11-13T12:21:32.498Z,21
2018-11-13T12:22:22.090Z,21
2018-11-13T12:23:14.264Z,21
2018-11-13T12:24:02.872Z,21
2018-11-13T12:24:53.534Z,21
2018-11-13T12:25:44.927Z,21
2018-11-13T12:26:33.974Z,21
2018-11-13T12:27:23.459Z,21
2018-11-13T12:28:13.810Z,21